createdAt,value
2023-03-26T00:01:29.790Z,7.80
2023-03-26T00:03:57.493Z,7.80
2023-03-26T00:06:28.767Z,7.70
2023-03-26T00:08:57.713Z,7.80
2023-03-26T00:11:27.562Z,7.80
2023-03-26T00:13:56.912Z,7.70
2023-03-26T00:16:26.957Z,7.70
2023-03-26T00:18:53.924Z,7.70
2023-03-26T00:21:27.658Z,7.70
2023-03-26T00:24:06.873Z,7.70
2023-03-26T00:26:35.174Z,7.70
2023-03-26T00:29:04.199Z,7.70
2023-03-26T00:31:31.639Z,7.70
2023-03-26T00:33:59.495Z,7.70
2023-03-26T00:36:26.851Z,7.70
2023-03-26T00:38:54.598Z,7.70
2023-03-26T00:41:25.117Z,7.70
2023-03-26T00:43:56.323Z,7.70
2023-03-26T00:46:24.989Z,7.70
2023-03-26T00:48:52.043Z,7.70
2023-03-26T00:51:20.734Z,7.70
2023-03-26T00:53:51.294Z,7.70
2023-03-26T00:56:19.164Z,7.70
2023-03-26T00:58:50.083Z,7.70
2023-03-26T01:01:21.614Z,7.70
2023-03-26T01:04:06.846Z,7.70
2023-03-26T01:06:37.777Z,7.70
2023-03-26T01:09:15.935Z,7.60
2023-03-26T01:11:43.421Z,7.60
2023-03-26T01:14:16.023Z,7.70
2023-03-26T01:16:59.498Z,7.70
2023-03-26T01:19:47.869Z,7.70
2023-03-26T01:22:20.822Z,7.70
2023-03-26T01:24:53.515Z,7.70
2023-03-26T01:27:45.456Z,7.70
2023-03-26T01:30:18.401Z,7.70
2023-03-26T01:33:19.414Z,7.70
2023-03-26T01:35:55.451Z,7.70
2023-03-26T01:38:40.694Z,7.60
2023-03-26T01:41:17.761Z,7.60
2023-03-26T01:44:06.675Z,7.60
2023-03-26T01:46:36.375Z,7.60
2023-03-26T01:49:13.034Z,7.50
2023-03-26T01:51:42.427Z,7.50
2023-03-26T01:54:21.366Z,7.50
2023-03-26T01:57:00.119Z,7.50
2023-03-26T02:00:07.077Z,7.50
2023-03-26T02:03:00.402Z,7.60
2023-03-26T02:05:33.195Z,7.60
2023-03-26T02:08:09.714Z,7.60
2023-03-26T02:10:41.905Z,7.60
2023-03-26T02:13:08.990Z,7.60
2023-03-26T02:15:35.838Z,7.60
2023-03-26T02:18:04.074Z,7.60
2023-03-26T02:20:31.309Z,7.60
2023-03-26T02:22:58.254Z,7.60
2023-03-26T02:25:25.181Z,7.50
2023-03-26T02:27:53.195Z,7.50
2023-03-26T02:30:29.783Z,7.50
2023-03-26T02:32:59.441Z,7.50
2023-03-26T02:35:26.706Z,7.50
2023-03-26T02:37:53.564Z,7.50
2023-03-26T02:40:22.441Z,7.50
2023-03-26T02:42:49.609Z,7.50
2023-03-26T02:45:16.526Z,7.50
2023-03-26T02:47:43.598Z,7.50
2023-03-26T02:50:12.012Z,7.50
2023-03-26T02:52:39.115Z,7.50
2023-03-26T02:55:06.439Z,7.50
2023-03-26T02:57:33.249Z,7.40
2023-03-26T03:00:00.169Z,7.40
2023-03-26T03:02:29.343Z,7.30
2023-03-26T03:05:01.597Z,7.20
2023-03-26T03:07:29.177Z,7.10
2023-03-26T03:09:56.013Z,7.00
2023-03-26T03:12:22.925Z,7.00
2023-03-26T03:14:49.789Z,7.00
2023-03-26T03:17:16.636Z,6.90
2023-03-26T03:19:43.515Z,6.90
2023-03-26T03:22:10.368Z,6.90
2023-03-26T03:24:37.210Z,6.90
2023-03-26T03:27:04.530Z,6.90
2023-03-26T03:30:02.988Z,6.90
2023-03-26T03:32:29.745Z,6.80
2023-03-26T03:34:56.576Z,6.80
2023-03-26T03:37:24.615Z,6.80
2023-03-26T03:39:51.422Z,6.90
2023-03-26T03:42:18.278Z,6.90
2023-03-26T03:44:45.363Z,6.90
2023-03-26T03:47:13.811Z,6.90
2023-03-26T03:49:41.049Z,7.00
2023-03-26T03:52:08.093Z,7.00
2023-03-26T03:54:35.285Z,7.00
2023-03-26T03:57:03.583Z,7.00
2023-03-26T03:59:30.455Z,7.00
2023-03-26T04:01:57.306Z,7.00
2023-03-26T04:04:24.763Z,7.00
2023-03-26T04:06:52.628Z,7.10
2023-03-26T04:09:19.513Z,7.10
2023-03-26T04:11:46.545Z,7.10
2023-03-26T04:14:13.401Z,7.10
2023-03-26T04:16:40.364Z,7.20
2023-03-26T04:19:08.542Z,7.20
2023-03-26T04:21:37.827Z,7.20
2023-03-26T04:24:05.359Z,7.20
2023-03-26T04:26:32.257Z,7.20
2023-03-26T04:29:02.778Z,7.20
2023-03-26T04:31:30.617Z,7.20
2023-03-26T04:34:05.842Z,7.30
2023-03-26T04:36:34.365Z,7.30
2023-03-26T04:39:05.097Z,7.30
2023-03-26T04:41:32.532Z,7.30
2023-03-26T04:44:01.983Z,7.30
2023-03-26T04:46:33.415Z,7.30
2023-03-26T04:49:01.214Z,7.30
2023-03-26T04:51:35.130Z,7.30
2023-03-26T04:54:07.081Z,7.20
2023-03-26T04:57:09.180Z,7.30
2023-03-26T04:59:37.102Z,7.30
2023-03-26T05:02:05.945Z,7.30
2023-03-26T05:04:36.781Z,7.20
2023-03-26T05:07:03.767Z,7.20
2023-03-26T05:09:30.831Z,7.30
2023-03-26T05:11:58.446Z,7.20
2023-03-26T05:14:25.473Z,7.30
2023-03-26T05:16:53.333Z,7.20
2023-03-26T05:19:20.933Z,7.20
2023-03-26T05:21:48.084Z,7.20
2023-03-26T05:24:14.904Z,7.20
2023-03-26T05:26:41.792Z,7.20
2023-03-26T05:29:08.662Z,7.20
2023-03-26T05:31:35.443Z,7.20
2023-03-26T05:34:02.469Z,7.20
2023-03-26T05:36:29.459Z,7.20
2023-03-26T05:38:56.286Z,7.20
2023-03-26T05:41:23.072Z,7.20
2023-03-26T05:43:50.491Z,7.20
2023-03-26T05:46:20.328Z,7.20
2023-03-26T05:48:47.283Z,7.20
2023-03-26T05:51:15.719Z,7.20
2023-03-26T05:53:42.705Z,7.20
2023-03-26T05:56:10.600Z,7.20
2023-03-26T05:58:38.063Z,7.20
2023-03-26T06:01:10.801Z,7.20
2023-03-26T06:03:40.669Z,7.30
2023-03-26T06:06:09.420Z,7.20
2023-03-26T06:08:36.467Z,7.30
2023-03-26T06:11:08.060Z,7.30
2023-03-26T06:13:35.305Z,7.30
2023-03-26T06:16:02.404Z,7.40
2023-03-26T06:18:29.199Z,7.40
2023-03-26T06:20:56.277Z,7.40
2023-03-26T06:23:23.562Z,7.40
2023-03-26T06:25:50.499Z,7.50
2023-03-26T06:28:17.363Z,7.50
2023-03-26T06:30:44.692Z,7.50
2023-03-26T06:33:11.530Z,7.50
2023-03-26T06:35:38.513Z,7.50
2023-03-26T06:38:07.293Z,7.50
2023-03-26T06:40:34.532Z,7.50
2023-03-26T06:43:07.666Z,7.50
2023-03-26T06:45:38.006Z,7.50
2023-03-26T06:48:05.416Z,7.50
2023-03-26T06:50:32.965Z,7.50
2023-03-26T06:53:00.362Z,7.50
2023-03-26T06:55:27.671Z,7.50
2023-03-26T06:57:58.091Z,7.50
2023-03-26T07:00:25.139Z,7.50
2023-03-26T07:02:52.357Z,7.50
2023-03-26T07:05:19.274Z,7.60
2023-03-26T07:07:47.296Z,7.60
2023-03-26T07:10:15.091Z,7.60
2023-03-26T07:12:42.886Z,7.60
2023-03-26T07:15:10.494Z,7.60
2023-03-26T07:17:37.554Z,7.60
2023-03-26T07:20:06.522Z,7.50
2023-03-26T07:22:34.429Z,7.50
2023-03-26T07:25:01.527Z,7.60
2023-03-26T07:27:52.207Z,7.50
2023-03-26T07:30:24.870Z,7.50
2023-03-26T07:33:14.930Z,7.40
2023-03-26T07:36:00.754Z,7.40
2023-03-26T07:38:50.779Z,7.30
2023-03-26T07:41:32.630Z,7.30
2023-03-26T07:44:17.202Z,7.20
2023-03-26T07:46:44.281Z,7.20
2023-03-26T07:49:13.012Z,7.20
2023-03-26T07:51:40.369Z,7.30
2023-03-26T07:54:10.728Z,7.30
2023-03-26T07:56:53.554Z,7.30
2023-03-26T07:59:22.630Z,7.30
2023-03-26T08:02:32.547Z,7.30
2023-03-26T08:04:59.435Z,7.30
2023-03-26T08:07:45.373Z,7.30
2023-03-26T08:10:19.094Z,7.30
2023-03-26T08:13:24.818Z,7.40
2023-03-26T08:16:23.260Z,7.40
2023-03-26T08:19:28.484Z,7.50
2023-03-26T08:22:20.872Z,7.50
2023-03-26T08:25:05.675Z,7.60
2023-03-26T08:27:37.851Z,7.70
2023-03-26T08:30:24.752Z,7.70
2023-03-26T08:33:00.395Z,7.80
2023-03-26T08:35:28.127Z,7.90
2023-03-26T08:37:55.047Z,8.00
2023-03-26T08:40:51.027Z,8.00
2023-03-26T08:43:53.328Z,8.10
2023-03-26T08:46:37.856Z,8.10
2023-03-26T08:49:29.674Z,8.10
2023-03-26T08:52:40.435Z,8.30
2023-03-26T08:55:36.618Z,8.30
2023-03-26T08:58:37.985Z,8.40
2023-03-26T09:01:36.827Z,8.50
2023-03-26T09:04:40.522Z,8.50
2023-03-26T09:07:28.567Z,8.50
2023-03-26T09:10:23.381Z,8.60
2023-03-26T09:13:21.532Z,8.80
2023-03-26T09:16:05.433Z,9.00
2023-03-26T09:18:59.123Z,8.90
2023-03-26T09:21:44.028Z,8.90
2023-03-26T09:24:44.009Z,9.00
2023-03-26T09:27:34.368Z,9.10
2023-03-26T09:30:25.802Z,9.00
2023-03-26T09:32:58.665Z,9.00
2023-03-26T09:35:52.889Z,9.00
2023-03-26T09:38:31.887Z,9.20
2023-03-26T09:41:49.952Z,9.30
2023-03-26T09:44:25.828Z,9.40
2023-03-26T09:47:22.564Z,9.40
2023-03-26T09:49:54.289Z,9.50
2023-03-26T09:52:39.877Z,9.70
2023-03-26T09:55:26.113Z,9.80
2023-03-26T09:58:26.756Z,9.80
2023-03-26T10:01:06.788Z,10.00
2023-03-26T10:03:41.722Z,10.10
2023-03-26T10:06:11.717Z,10.20
2023-03-26T10:09:03.051Z,10.10
2023-03-26T10:11:39.015Z,10.00
2023-03-26T10:14:51.002Z,9.90
2023-03-26T10:17:46.443Z,9.80
2023-03-26T10:20:19.324Z,9.80
2023-03-26T10:23:09.055Z,9.90
2023-03-26T10:26:00.543Z,9.90
2023-03-26T10:28:59.473Z,9.80
2023-03-26T10:31:47.545Z,9.70
2023-03-26T10:34:49.912Z,9.60
2023-03-26T10:37:46.066Z,9.60
2023-03-26T10:40:35.370Z,9.70
2023-03-26T10:43:24.627Z,9.70
2023-03-26T10:45:54.520Z,9.90
2023-03-26T10:48:30.988Z,9.90
2023-03-26T10:51:16.021Z,9.90
2023-03-26T10:53:58.676Z,10.00
2023-03-26T10:56:45.365Z,10.10
2023-03-26T10:59:14.606Z,10.00
2023-03-26T11:02:12.157Z,10.10
2023-03-26T11:04:57.959Z,10.00
2023-03-26T11:07:50.732Z,10.00
2023-03-26T11:10:45.882Z,9.90
2023-03-26T11:13:42.134Z,9.80
2023-03-26T11:16:31.255Z,9.90
2023-03-26T11:19:19.895Z,9.90
2023-03-26T11:21:55.869Z,9.90
2023-03-26T11:24:34.130Z,10.00
2023-03-26T11:27:42.313Z,10.00
2023-03-26T11:30:12.392Z,10.10
2023-03-26T11:32:41.924Z,10.00
2023-03-26T11:35:17.885Z,10.10
2023-03-26T11:38:10.992Z,10.10
2023-03-26T11:40:41.705Z,10.30
2023-03-26T11:43:13.116Z,10.40
2023-03-26T11:45:45.321Z,10.50
2023-03-26T11:48:38.120Z,10.50
2023-03-26T11:51:09.100Z,10.60
2023-03-26T11:53:38.760Z,10.40
2023-03-26T11:56:28.723Z,10.30
2023-03-26T11:59:05.586Z,10.30
2023-03-26T12:01:50.424Z,10.40
2023-03-26T12:04:29.392Z,10.50
2023-03-26T12:07:21.114Z,10.40
2023-03-26T12:09:53.270Z,10.50
2023-03-26T12:12:21.745Z,10.40
2023-03-26T12:14:48.605Z,10.40
2023-03-26T12:17:31.394Z,10.30
2023-03-26T12:19:59.426Z,10.10
2023-03-26T12:22:43.629Z,9.90
2023-03-26T12:25:28.919Z,9.90
2023-03-26T12:28:13.142Z,9.70
2023-03-26T12:31:04.757Z,10.00
2023-03-26T12:33:34.348Z,10.10
2023-03-26T12:36:26.467Z,10.10
2023-03-26T12:39:16.353Z,10.10
2023-03-26T12:43:40.262Z,10.00
2023-03-26T12:44:59.270Z,10.00
2023-03-26T12:47:59.420Z,9.90
2023-03-26T12:50:34.266Z,10.00
2023-03-26T12:53:23.444Z,10.10
2023-03-26T12:56:11.573Z,10.00
2023-03-26T12:59:04.538Z,9.90
2023-03-26T13:01:54.653Z,10.00
2023-03-26T13:04:30.466Z,9.90
2023-03-26T13:07:25.189Z,9.80
2023-03-26T13:10:08.385Z,9.80
2023-03-26T13:13:10.918Z,9.80
2023-03-26T13:15:43.928Z,9.70
2023-03-26T13:18:43.977Z,9.80
2023-03-26T13:21:26.045Z,9.70
2023-03-26T13:24:30.771Z,9.90
2023-03-26T13:27:24.758Z,9.90
2023-03-26T13:30:06.692Z,9.80
2023-03-26T13:33:04.002Z,9.90
2023-03-26T13:35:36.940Z,10.00
2023-03-26T13:38:12.788Z,9.90
2023-03-26T13:40:42.503Z,10.00
2023-03-26T13:43:46.746Z,9.90
2023-03-26T13:46:31.963Z,9.90
2023-03-26T13:49:04.946Z,10.00
2023-03-26T13:51:51.368Z,10.00
2023-03-26T13:54:24.036Z,9.80
2023-03-26T13:57:00.130Z,9.90
2023-03-26T13:59:36.114Z,10.00
2023-03-26T14:02:11.124Z,10.10
2023-03-26T14:04:46.469Z,10.20
2023-03-26T14:07:45.703Z,10.00
2023-03-26T14:10:19.871Z,10.00
2023-03-26T14:13:04.845Z,10.10
2023-03-26T14:15:36.987Z,10.00
2023-03-26T14:18:11.085Z,10.00
2023-03-26T14:20:44.046Z,10.20
2023-03-26T14:23:25.925Z,10.10
2023-03-26T14:26:22.115Z,10.00
2023-03-26T14:28:52.249Z,9.90
2023-03-26T14:31:37.118Z,9.90
2023-03-26T14:34:27.140Z,9.90
2023-03-26T14:37:00.135Z,9.90
2023-03-26T14:39:48.980Z,9.80
2023-03-26T14:42:42.902Z,9.80
2023-03-26T14:45:45.820Z,9.70
2023-03-26T14:48:27.729Z,9.60
2023-03-26T14:51:08.950Z,9.60
2023-03-26T14:53:46.629Z,9.70
2023-03-26T14:56:50.846Z,9.70
2023-03-26T14:59:29.750Z,9.70
2023-03-26T15:02:30.141Z,9.50
2023-03-26T15:05:15.811Z,9.50
2023-03-26T15:08:20.125Z,9.60
2023-03-26T15:10:50.095Z,9.60
2023-03-26T15:13:43.461Z,9.60
2023-03-26T15:16:44.711Z,9.50
2023-03-26T15:19:23.493Z,9.40
2023-03-26T15:22:14.846Z,9.40
2023-03-26T15:25:13.652Z,9.20
2023-03-26T15:28:09.630Z,9.10
2023-03-26T15:30:52.459Z,9.10
2023-03-26T15:33:54.936Z,9.10
2023-03-26T15:36:50.974Z,9.10
2023-03-26T15:40:07.747Z,9.10
2023-03-26T15:43:10.453Z,9.10
2023-03-26T15:46:03.497Z,9.10
2023-03-26T15:48:48.796Z,9.00
2023-03-26T15:51:47.500Z,9.10
2023-03-26T15:54:29.449Z,9.10
2023-03-26T15:57:17.229Z,9.10
2023-03-26T16:00:19.297Z,9.10
2023-03-26T16:03:10.380Z,9.10
2023-03-26T16:06:15.879Z,9.00
2023-03-26T16:09:00.532Z,9.00
2023-03-26T16:11:58.200Z,9.00
2023-03-26T16:14:41.674Z,8.90
2023-03-26T16:17:23.384Z,8.90
2023-03-26T16:20:09.539Z,8.90
2023-03-26T16:23:01.664Z,8.90
2023-03-26T16:25:32.772Z,8.90
2023-03-26T16:28:32.581Z,8.80
2023-03-26T16:31:10.562Z,8.80
2023-03-26T16:34:19.641Z,8.70
2023-03-26T16:36:51.335Z,8.80
2023-03-26T16:39:24.419Z,8.70
2023-03-26T16:42:06.211Z,8.70
2023-03-26T16:44:51.848Z,8.70
2023-03-26T16:47:29.167Z,8.60
2023-03-26T16:50:33.402Z,8.50
2023-03-26T16:53:03.115Z,8.50
2023-03-26T16:55:51.848Z,8.50
2023-03-26T16:58:56.262Z,8.40
2023-03-26T17:01:28.393Z,8.40
2023-03-26T17:03:59.155Z,8.40
2023-03-26T17:06:53.340Z,8.30
2023-03-26T17:09:28.772Z,8.30
2023-03-26T17:11:55.463Z,8.30
2023-03-26T17:14:48.970Z,8.30
2023-03-26T17:17:46.689Z,8.20
2023-03-26T17:20:40.917Z,8.20
2023-03-26T17:23:37.820Z,8.10
2023-03-26T17:26:22.021Z,8.10
2023-03-26T17:29:19.618Z,8.00
2023-03-26T17:31:53.271Z,7.90
2023-03-26T17:34:45.492Z,7.80
2023-03-26T17:37:21.399Z,7.80
2023-03-26T17:39:51.217Z,7.70
2023-03-26T17:42:32.892Z,7.70
2023-03-26T17:45:04.606Z,7.60
2023-03-26T17:47:59.130Z,7.60
2023-03-26T17:50:34.961Z,7.50
2023-03-26T17:53:21.071Z,7.40
2023-03-26T17:55:50.798Z,7.40
2023-03-26T18:02:03.460Z,7.20
2023-03-26T18:04:35.098Z,7.20
2023-03-26T18:07:59.522Z,7.10
2023-03-26T18:10:36.329Z,7.10
2023-03-26T18:13:27.489Z,7.00
2023-03-26T18:16:27.080Z,6.90
2023-03-26T18:19:00.668Z,6.90
2023-03-26T18:21:38.236Z,6.80
2023-03-26T18:24:08.917Z,6.80
2023-03-26T18:26:42.251Z,6.70
2023-03-26T18:29:13.157Z,6.70
2023-03-26T18:31:43.503Z,6.70
2023-03-26T18:34:20.165Z,6.60
2023-03-26T18:37:22.602Z,6.60
2023-03-26T18:40:12.280Z,6.50
2023-03-26T18:42:41.266Z,6.50
2023-03-26T18:45:16.972Z,6.40
2023-03-26T18:47:43.959Z,6.30
2023-03-26T18:50:16.025Z,6.30
2023-03-26T18:53:02.430Z,6.30
2023-03-26T18:55:30.799Z,6.20
2023-03-26T18:57:58.142Z,6.20
2023-03-26T19:00:30.356Z,6.10
2023-03-26T19:03:06.093Z,6.10
2023-03-26T19:05:34.749Z,6.00
2023-03-26T19:08:03.730Z,6.00
2023-03-26T19:10:33.028Z,6.00
2023-03-26T19:13:04.109Z,5.90
2023-03-26T19:15:34.304Z,5.90
2023-03-26T19:18:07.405Z,5.80
2023-03-26T19:21:03.465Z,5.80
2023-03-26T19:23:37.401Z,5.70
2023-03-26T19:26:23.346Z,5.70
2023-03-26T19:28:53.887Z,5.70
2023-03-26T19:31:36.121Z,5.60
2023-03-26T19:34:13.953Z,5.60
2023-03-26T19:37:00.900Z,5.50
2023-03-26T19:39:37.699Z,5.50
2023-03-26T19:42:06.842Z,5.50
2023-03-26T19:44:39.487Z,5.40
2023-03-26T19:47:16.580Z,5.30
2023-03-26T19:49:57.883Z,5.30
2023-03-26T19:52:27.567Z,5.30
2023-03-26T19:55:01.345Z,5.20
2023-03-26T19:57:32.506Z,5.20
2023-03-26T20:00:00.248Z,5.20
2023-03-26T20:02:27.966Z,5.20
2023-03-26T20:04:54.832Z,5.10
2023-03-26T20:07:52.365Z,5.10
2023-03-26T20:10:19.489Z,5.00
2023-03-26T20:12:46.307Z,5.00
2023-03-26T20:15:22.375Z,5.00
2023-03-26T20:17:55.704Z,5.00
2023-03-26T20:20:24.741Z,5.00
2023-03-26T20:22:53.909Z,5.00
2023-03-26T20:25:24.429Z,5.00
2023-03-26T20:27:53.140Z,5.00
2023-03-26T20:30:36.347Z,5.00
2023-03-26T20:33:12.506Z,5.10
2023-03-26T20:35:41.325Z,5.10
2023-03-26T20:38:09.687Z,5.00
2023-03-26T20:40:38.312Z,5.00
2023-03-26T20:43:11.273Z,5.00
2023-03-26T20:45:38.053Z,5.00
2023-03-26T20:48:05.065Z,5.10
2023-03-26T20:50:35.639Z,5.00
2023-03-26T20:53:03.058Z,5.10
2023-03-26T20:55:29.906Z,5.00
2023-03-26T20:57:56.860Z,5.00
2023-03-26T21:00:24.244Z,5.00
2023-03-26T21:02:53.571Z,5.00
2023-03-26T21:05:25.778Z,4.90
2023-03-26T21:07:57.769Z,5.00
2023-03-26T21:10:27.007Z,4.90
2023-03-26T21:12:58.602Z,4.90
2023-03-26T21:15:27.602Z,4.90
2023-03-26T21:17:55.096Z,4.90
2023-03-26T21:20:23.830Z,4.90
2023-03-26T21:22:58.295Z,4.90
2023-03-26T21:25:32.124Z,4.90
2023-03-26T21:28:16.079Z,4.90
2023-03-26T21:30:43.263Z,4.80
2023-03-26T21:33:10.187Z,4.80
2023-03-26T21:35:37.365Z,4.80
2023-03-26T21:38:04.956Z,4.80
2023-03-26T21:40:32.202Z,4.80
2023-03-26T21:43:00.508Z,4.70
2023-03-26T21:45:27.888Z,4.70
2023-03-26T21:47:54.929Z,4.70
2023-03-26T21:50:23.602Z,4.70
2023-03-26T21:52:51.881Z,4.70
2023-03-26T21:56:02.823Z,4.70
2023-03-26T21:58:32.652Z,4.70
2023-03-26T22:01:30.484Z,4.70
2023-03-26T22:04:19.796Z,4.60
2023-03-26T22:06:53.807Z,4.70
2023-03-26T22:09:33.747Z,4.60
2023-03-26T22:12:07.291Z,4.60
2023-03-26T22:14:34.484Z,4.50
2023-03-26T22:17:06.373Z,4.50
2023-03-26T22:19:34.632Z,4.50
2023-03-26T22:22:02.086Z,4.40
2023-03-26T22:24:29.035Z,4.40
2023-03-26T22:26:56.063Z,4.40
2023-03-26T22:29:23.190Z,4.40
2023-03-26T22:31:49.946Z,4.40
2023-03-26T22:34:16.820Z,4.30
2023-03-26T22:36:43.758Z,4.40
2023-03-26T22:39:12.548Z,4.40
2023-03-26T22:41:39.385Z,4.40
2023-03-26T22:44:19.216Z,4.30
2023-03-26T22:46:49.287Z,4.30
2023-03-26T22:49:16.903Z,4.30
2023-03-26T22:51:43.979Z,4.30
2023-03-26T22:54:11.025Z,4.30
2023-03-26T22:56:37.964Z,4.30
2023-03-26T22:59:06.790Z,4.30
2023-03-26T23:01:34.808Z,4.30
2023-03-26T23:04:01.758Z,4.30
2023-03-26T23:06:28.739Z,4.30
2023-03-26T23:08:57.032Z,4.30
2023-03-26T23:11:24.152Z,4.20
2023-03-26T23:13:51.259Z,4.20
2023-03-26T23:16:19.256Z,4.20
2023-03-26T23:18:46.535Z,4.20
2023-03-26T23:21:16.022Z,4.20
2023-03-26T23:23:42.834Z,4.20
2023-03-26T23:26:10.814Z,4.20
2023-03-26T23:28:38.402Z,4.20
2023-03-26T23:31:08.082Z,4.20
2023-03-26T23:33:37.654Z,4.10
2023-03-26T23:36:09.187Z,4.10
2023-03-26T23:38:43.653Z,4.00
2023-03-26T23:41:15.407Z,3.80
2023-03-26T23:43:55.518Z,3.80
2023-03-26T23:46:25.156Z,3.80
2023-03-26T23:48:52.774Z,3.70
2023-03-26T23:51:20.473Z,3.70
2023-03-26T23:54:05.196Z,3.60
2023-03-26T23:56:32.170Z,3.50
2023-03-26T23:58:59.371Z,3.50
